sensor_id;sensor_type;location;lat;lon;timestamp;pressure;altitude;pressure_sealevel;temperature;humidity
53689;BME280;39583;54.682;30.662;2023-06-10T07:22:50;100158.81;;;17.65;52.62
53689;BME280;39583;54.682;30.662;2023-06-10T07:25:16;100162.53;;;17.93;51.70
53689;BME280;39583;54.682;30.662;2023-06-10T07:27:42;100161.28;;;18.01;51.05
53689;BME280;39583;54.682;30.662;2023-06-10T07:30:08;100162.94;;;18.23;51.94
53689;BME280;39583;54.682;30.662;2023-06-10T07:32:34;100164.41;;;18.53;52.58
53689;BME280;39583;54.682;30.662;2023-06-10T07:35:01;100166.66;;;18.83;52.32
53689;BME280;39583;54.682;30.662;2023-06-10T07:37:29;100169.84;;;18.75;51.01
53689;BME280;39583;54.682;30.662;2023-06-10T07:39:56;100159.28;;;18.62;49.45
53689;BME280;39583;54.682;30.662;2023-06-10T07:42:22;100169.16;;;18.63;49.46
53689;BME280;39583;54.682;30.662;2023-06-10T07:44:48;100179.06;;;18.69;49.57
53689;BME280;39583;54.682;30.662;2023-06-10T07:47:13;100183.13;;;18.66;47.79
53689;BME280;39583;54.682;30.662;2023-06-10T07:49:39;100171.25;;;18.55;47.06
53689;BME280;39583;54.682;30.662;2023-06-10T07:52:06;100170.72;;;18.58;46.42
53689;BME280;39583;54.682;30.662;2023-06-10T07:54:32;100164.59;;;18.68;47.26
53689;BME280;39583;54.682;30.662;2023-06-10T07:56:58;100175.88;;;18.77;47.21
53689;BME280;39583;54.682;30.662;2023-06-10T07:59:24;100169.50;;;18.93;47.62
53689;BME280;39583;54.682;30.662;2023-06-10T08:01:52;100171.03;;;19.11;47.08
53689;BME280;39583;54.682;30.662;2023-06-10T08:04:18;100169.13;;;19.11;47.06
53689;BME280;39583;54.682;30.662;2023-06-10T08:06:44;100169.44;;;19.15;46.54
53689;BME280;39583;54.682;30.662;2023-06-10T08:09:10;100169.38;;;19.10;46.55
53689;BME280;39583;54.682;30.662;2023-06-10T08:11:36;100173.09;;;18.99;46.69
53689;BME280;39583;54.682;30.662;2023-06-10T08:14:02;100166.78;;;18.93;46.81
53689;BME280;39583;54.682;30.662;2023-06-10T08:16:28;100165.88;;;18.88;47.23
53689;BME280;39583;54.682;30.662;2023-06-10T08:18:54;100172.34;;;19.03;47.51
53689;BME280;39583;54.682;30.662;2023-06-10T08:21:19;100173.84;;;19.21;47.07
53689;BME280;39583;54.682;30.662;2023-06-10T08:23:46;100171.50;;;19.30;46.16
53689;BME280;39583;54.682;30.662;2023-06-10T08:26:11;100173.22;;;19.41;46.20
53689;BME280;39583;54.682;30.662;2023-06-10T08:28:37;100183.72;;;19.54;46.69
53689;BME280;39583;54.682;30.662;2023-06-10T08:31:03;100181.84;;;19.55;45.98
53689;BME280;39583;54.682;30.662;2023-06-10T08:33:29;100171.81;;;19.38;45.94
53689;BME280;39583;54.682;30.662;2023-06-10T08:35:55;100180.25;;;19.32;46.35
53689;BME280;39583;54.682;30.662;2023-06-10T08:38:21;100188.00;;;19.45;46.49
53689;BME280;39583;54.682;30.662;2023-06-10T08:40:46;100188.94;;;19.56;45.94
53689;BME280;39583;54.682;30.662;2023-06-10T08:43:23;100183.78;;;19.64;44.94
53689;BME280;39583;54.682;30.662;2023-06-10T08:45:57;100175.88;;;19.63;45.03
53689;BME280;39583;54.682;30.662;2023-06-10T08:48:27;100176.94;;;19.57;44.46
53689;BME280;39583;54.682;30.662;2023-06-10T08:50:57;100186.34;;;19.76;45.18
53689;BME280;39583;54.682;30.662;2023-06-10T08:53:23;100190.47;;;20.26;44.16
53689;BME280;39583;54.682;30.662;2023-06-10T08:55:51;100156.97;;;20.51;43.98
53689;BME280;39583;54.682;30.662;2023-06-10T08:58:19;100184.47;;;20.97;43.97
53689;BME280;39583;54.682;30.662;2023-06-10T09:00:46;100151.31;;;20.93;43.10
53689;BME280;39583;54.682;30.662;2023-06-10T09:03:12;100169.72;;;21.18;43.10
53689;BME280;39583;54.682;30.662;2023-06-10T09:05:38;100172.44;;;20.98;42.77
53689;BME280;39583;54.682;30.662;2023-06-10T09:08:07;100187.75;;;20.99;42.62
53689;BME280;39583;54.682;30.662;2023-06-10T09:10:34;100184.94;;;20.68;42.88
53689;BME280;39583;54.682;30.662;2023-06-10T09:13:01;100191.41;;;20.42;43.57
53689;BME280;39583;54.682;30.662;2023-06-10T09:15:26;100198.41;;;20.22;43.14
53689;BME280;39583;54.682;30.662;2023-06-10T09:17:52;100203.25;;;20.15;43.27
53689;BME280;39583;54.682;30.662;2023-06-10T09:20:18;100193.69;;;20.18;43.21
53689;BME280;39583;54.682;30.662;2023-06-10T09:22:44;100190.59;;;19.94;42.32
53689;BME280;39583;54.682;30.662;2023-06-10T09:25:12;100183.34;;;19.78;42.83
53689;BME280;39583;54.682;30.662;2023-06-10T09:30:26;100177.94;;;20.35;42.83
53689;BME280;39583;54.682;30.662;2023-06-10T09:32:54;100180.34;;;20.84;42.52
53689;BME280;39583;54.682;30.662;2023-06-10T09:35:25;100179.81;;;21.07;41.25
53689;BME280;39583;54.682;30.662;2023-06-10T09:37:58;100182.28;;;21.09;40.95
53689;BME280;39583;54.682;30.662;2023-06-10T09:40:25;100187.66;;;20.68;41.55
53689;BME280;39583;54.682;30.662;2023-06-10T09:42:56;100194.84;;;20.22;41.84
53689;BME280;39583;54.682;30.662;2023-06-10T09:45:23;100191.59;;;19.83;42.45
53689;BME280;39583;54.682;30.662;2023-06-10T09:47:52;100196.69;;;19.69;43.13
53689;BME280;39583;54.682;30.662;2023-06-10T09:50:19;100191.69;;;19.98;42.58
53689;BME280;39583;54.682;30.662;2023-06-10T09:52:46;100201.19;;;20.32;41.84
53689;BME280;39583;54.682;30.662;2023-06-10T09:55:13;100209.28;;;20.12;41.48
53689;BME280;39583;54.682;30.662;2023-06-10T09:57:39;100194.06;;;19.84;42.13
53689;BME280;39583;54.682;30.662;2023-06-10T10:00:08;100190.41;;;20.11;41.76
53689;BME280;39583;54.682;30.662;2023-06-10T10:05:14;100192.28;;;20.52;41.06
53689;BME280;39583;54.682;30.662;2023-06-10T10:07:42;100175.13;;;20.72;40.31
53689;BME280;39583;54.682;30.662;2023-06-10T10:10:08;100206.22;;;20.46;40.16
53689;BME280;39583;54.682;30.662;2023-06-10T10:12:37;100195.53;;;20.02;40.87
53689;BME280;39583;54.682;30.662;2023-06-10T10:15:06;100187.41;;;19.70;40.72
53689;BME280;39583;54.682;30.662;2023-06-10T10:17:34;100201.50;;;19.94;41.71
53689;BME280;39583;54.682;30.662;2023-06-10T10:20:04;100191.41;;;19.94;41.19
53689;BME280;39583;54.682;30.662;2023-06-10T10:22:41;100169.28;;;20.01;41.49
53689;BME280;39583;54.682;30.662;2023-06-10T10:25:16;100179.72;;;20.67;40.46
53689;BME280;39583;54.682;30.662;2023-06-10T10:27:43;100194.00;;;20.74;39.82
53689;BME280;39583;54.682;30.662;2023-06-10T10:30:11;100188.44;;;20.48;40.11
53689;BME280;39583;54.682;30.662;2023-06-10T10:32:43;100194.84;;;20.22;40.40
53689;BME280;39583;54.682;30.662;2023-06-10T10:35:17;100186.69;;;20.37;40.49
53689;BME280;39583;54.682;30.662;2023-06-10T10:37:47;100206.72;;;20.43;40.38
53689;BME280;39583;54.682;30.662;2023-06-10T10:40:15;100187.59;;;20.48;40.01
53689;BME280;39583;54.682;30.662;2023-06-10T10:42:43;100189.72;;;20.36;40.16
53689;BME280;39583;54.682;30.662;2023-06-10T10:45:09;100192.88;;;20.17;40.07
53689;BME280;39583;54.682;30.662;2023-06-10T10:47:36;100194.50;;;20.13;39.79
53689;BME280;39583;54.682;30.662;2023-06-10T10:50:16;100194.06;;;20.31;39.29
53689;BME280;39583;54.682;30.662;2023-06-10T10:55:21;100181.41;;;20.73;39.75
53689;BME280;39583;54.682;30.662;2023-06-10T10:57:58;100200.72;;;20.46;39.02
53689;BME280;39583;54.682;30.662;2023-06-10T11:00:31;100193.47;;;20.24;39.01
53689;BME280;39583;54.682;30.662;2023-06-10T11:03:05;100196.41;;;20.13;39.10
53689;BME280;39583;54.682;30.662;2023-06-10T11:05:47;100189.84;;;20.09;39.18
53689;BME280;39583;54.682;30.662;2023-06-10T11:11:22;100186.78;;;20.47;38.60
53689;BME280;39583;54.682;30.662;2023-06-10T11:14:27;100190.47;;;20.94;38.21
53689;BME280;39583;54.682;30.662;2023-06-10T11:16:58;100181.75;;;21.22;37.25
53689;BME280;39583;54.682;30.662;2023-06-10T11:19:37;100194.84;;;20.89;37.17
53689;BME280;39583;54.682;30.662;2023-06-10T11:22:07;100187.53;;;20.38;37.38
53689;BME280;39583;54.682;30.662;2023-06-10T11:24:35;100188.41;;;20.01;38.00
53689;BME280;39583;54.682;30.662;2023-06-10T11:27:22;100198.00;;;20.03;37.72
53689;BME280;39583;54.682;30.662;2023-06-10T11:32:32;100198.19;;;20.39;36.84
53689;BME280;39583;54.682;30.662;2023-06-10T11:34:59;100187.66;;;20.68;37.04
53689;BME280;39583;54.682;30.662;2023-06-10T11:37:25;100191.31;;;20.99;36.64
53689;BME280;39583;54.682;30.662;2023-06-10T11:39:54;100199.84;;;21.23;36.27
53689;BME280;39583;54.682;30.662;2023-06-10T11:42:21;100183.19;;;21.40;35.94
53689;BME280;39583;54.682;30.662;2023-06-10T11:44:52;100187.28;;;21.32;36.05
53689;BME280;39583;54.682;30.662;2023-06-10T11:47:20;100191.13;;;21.36;36.17
53689;BME280;39583;54.682;30.662;2023-06-10T11:49:46;100204.19;;;21.09;35.99
53689;BME280;39583;54.682;30.662;2023-06-10T11:52:28;100191.81;;;20.71;36.10
53689;BME280;39583;54.682;30.662;2023-06-10T11:54:55;100194.50;;;20.66;36.73
53689;BME280;39583;54.682;30.662;2023-06-10T11:57:21;100192.34;;;20.78;36.52
53689;BME280;39583;54.682;30.662;2023-06-10T11:59:47;100193.19;;;20.73;35.63
53689;BME280;39583;54.682;30.662;2023-06-10T12:02:16;100189.03;;;20.66;36.08
53689;BME280;39583;54.682;30.662;2023-06-10T12:04:42;100192.03;;;20.59;36.85
53689;BME280;39583;54.682;30.662;2023-06-10T12:07:08;100199.59;;;20.42;36.51
53689;BME280;39583;54.682;30.662;2023-06-10T12:09:34;100203.00;;;20.17;37.65
53689;BME280;39583;54.682;30.662;2023-06-10T12:12:04;100205.91;;;20.42;37.14
53689;BME280;39583;54.682;30.662;2023-06-10T12:17:21;100202.00;;;21.06;35.66
53689;BME280;39583;54.682;30.662;2023-06-10T12:19:47;100203.38;;;21.08;35.17
53689;BME280;39583;54.682;30.662;2023-06-10T12:22:14;100208.59;;;21.10;35.52
53689;BME280;39583;54.682;30.662;2023-06-10T12:24:44;100172.38;;;20.72;35.12
53689;BME280;39583;54.682;30.662;2023-06-10T12:27:11;100191.25;;;20.79;35.13
53689;BME280;39583;54.682;30.662;2023-06-10T12:29:37;100194.78;;;20.59;35.72
53689;BME280;39583;54.682;30.662;2023-06-10T12:32:04;100190.13;;;20.59;35.27
53689;BME280;39583;54.682;30.662;2023-06-10T12:34:33;100185.19;;;20.61;35.05
53689;BME280;39583;54.682;30.662;2023-06-10T12:37:00;100190.72;;;20.77;34.75
53689;BME280;39583;54.682;30.662;2023-06-10T12:39:27;100185.03;;;20.99;34.85
53689;BME280;39583;54.682;30.662;2023-06-10T12:41:53;100182.31;;;21.24;34.39
53689;BME280;39583;54.682;30.662;2023-06-10T12:44:28;100188.66;;;21.40;33.81
53689;BME280;39583;54.682;30.662;2023-06-10T12:46:55;100166.19;;;21.33;33.61
53689;BME280;39583;54.682;30.662;2023-06-10T12:49:21;100194.06;;;20.99;34.60
53689;BME280;39583;54.682;30.662;2023-06-10T12:51:47;100187.66;;;20.68;34.60
53689;BME280;39583;54.682;30.662;2023-06-10T12:54:13;100188.78;;;20.72;34.93
53689;BME280;39583;54.682;30.662;2023-06-10T12:56:39;100187.19;;;20.91;34.32
53689;BME280;39583;54.682;30.662;2023-06-10T12:59:05;100193.25;;;21.19;34.12
53689;BME280;39583;54.682;30.662;2023-06-10T13:01:31;100165.66;;;21.26;33.93
53689;BME280;39583;54.682;30.662;2023-06-10T13:03:58;100180.97;;;21.77;33.65
53689;BME280;39583;54.682;30.662;2023-06-10T13:06:24;100189.47;;;21.76;33.38
53689;BME280;39583;54.682;30.662;2023-06-10T13:08:51;100193.56;;;21.33;33.63
53689;BME280;39583;54.682;30.662;2023-06-10T13:11:16;100196.44;;;20.70;33.84
53689;BME280;39583;54.682;30.662;2023-06-10T13:13:42;100195.94;;;20.26;34.87
53689;BME280;39583;54.682;30.662;2023-06-10T13:16:08;100208.84;;;20.36;34.89
53689;BME280;39583;54.682;30.662;2023-06-10T13:18:34;100185.19;;;20.67;35.26
53689;BME280;39583;54.682;30.662;2023-06-10T13:21:03;100185.84;;;20.99;34.74
53689;BME280;39583;54.682;30.662;2023-06-10T13:23:29;100191.06;;;21.21;34.22
53689;BME280;39583;54.682;30.662;2023-06-10T13:25:56;100193.25;;;21.04;33.87
53689;BME280;39583;54.682;30.662;2023-06-10T13:28:23;100189.25;;;20.54;35.05
53689;BME280;39583;54.682;30.662;2023-06-10T13:30:49;100192.47;;;20.41;35.20
53689;BME280;39583;54.682;30.662;2023-06-10T13:33:14;100188.47;;;20.58;34.89
53689;BME280;39583;54.682;30.662;2023-06-10T13:35:40;100170.75;;;20.91;34.75
53689;BME280;39583;54.682;30.662;2023-06-10T13:38:07;100178.81;;;21.39;34.28
53689;BME280;39583;54.682;30.662;2023-06-10T13:40:33;100184.25;;;21.74;34.02
53689;BME280;39583;54.682;30.662;2023-06-10T13:42:59;100185.91;;;21.75;32.63
53689;BME280;39583;54.682;30.662;2023-06-10T13:45:25;100188.31;;;21.21;33.13
53689;BME280;39583;54.682;30.662;2023-06-10T13:47:51;100190.41;;;20.68;34.13
53689;BME280;39583;54.682;30.662;2023-06-10T13:50:17;100202.88;;;20.44;34.73
53689;BME280;39583;54.682;30.662;2023-06-10T13:52:43;100179.31;;;20.32;34.37
53689;BME280;39583;54.682;30.662;2023-06-10T13:55:09;100191.34;;;20.37;34.55
53689;BME280;39583;54.682;30.662;2023-06-10T13:57:34;100174.75;;;20.53;34.52
53689;BME280;39583;54.682;30.662;2023-06-10T14:00:01;100171.00;;;20.75;34.39
53689;BME280;39583;54.682;30.662;2023-06-10T14:02:30;100164.22;;;20.98;33.70
53689;BME280;39583;54.682;30.662;2023-06-10T14:04:56;100179.56;;;21.14;33.29
53689;BME280;39583;54.682;30.662;2023-06-10T14:07:22;100178.78;;;21.29;33.60
53689;BME280;39583;54.682;30.662;2023-06-10T14:09:48;100179.59;;;21.24;33.26
53689;BME280;39583;54.682;30.662;2023-06-10T14:12:14;100184.19;;;21.03;33.14
53689;BME280;39583;54.682;30.662;2023-06-10T14:14:40;100188.59;;;20.99;33.53
53689;BME280;39583;54.682;30.662;2023-06-10T14:17:06;100184.69;;;20.80;33.53
53689;BME280;39583;54.682;30.662;2023-06-10T14:19:32;100174.88;;;20.89;34.05
53689;BME280;39583;54.682;30.662;2023-06-10T14:21:57;100173.53;;;21.17;33.65
53689;BME280;39583;54.682;30.662;2023-06-10T14:24:23;100176.59;;;21.26;33.46
53689;BME280;39583;54.682;30.662;2023-06-10T14:26:49;100173.28;;;21.24;33.61
53689;BME280;39583;54.682;30.662;2023-06-10T14:29:15;100171.34;;;21.19;33.35
53689;BME280;39583;54.682;30.662;2023-06-10T14:31:42;100174.63;;;21.21;33.95
53689;BME280;39583;54.682;30.662;2023-06-10T14:34:08;100189.69;;;21.18;33.81
53689;BME280;39583;54.682;30.662;2023-06-10T14:36:34;100195.09;;;20.83;32.79
53689;BME280;39583;54.682;30.662;2023-06-10T14:39:00;100184.06;;;20.47;33.25
53689;BME280;39583;54.682;30.662;2023-06-10T14:41:26;100184.78;;;20.32;33.72
53689;BME280;39583;54.682;30.662;2023-06-10T14:43:52;100188.88;;;20.35;33.84
53689;BME280;39583;54.682;30.662;2023-06-10T14:46:18;100181.78;;;20.39;33.85
53689;BME280;39583;54.682;30.662;2023-06-10T14:48:46;100183.56;;;20.60;33.62
53689;BME280;39583;54.682;30.662;2023-06-10T14:51:12;100175.38;;;20.71;33.67
53689;BME280;39583;54.682;30.662;2023-06-10T14:53:38;100181.91;;;20.70;33.30
53689;BME280;39583;54.682;30.662;2023-06-10T14:56:04;100179.44;;;20.58;32.77
53689;BME280;39583;54.682;30.662;2023-06-10T14:58:30;100181.03;;;20.49;32.83
53689;BME280;39583;54.682;30.662;2023-06-10T15:00:56;100173.16;;;20.63;32.97
53689;BME280;39583;54.682;30.662;2023-06-10T15:03:22;100179.22;;;20.80;32.84
53689;BME280;39583;54.682;30.662;2023-06-10T15:05:48;100176.53;;;21.00;32.67
53689;BME280;39583;54.682;30.662;2023-06-10T15:08:14;100186.41;;;21.11;32.82
53689;BME280;39583;54.682;30.662;2023-06-10T15:10:40;100188.88;;;21.13;32.72
53689;BME280;39583;54.682;30.662;2023-06-10T15:13:06;100187.19;;;20.91;32.90
53689;BME280;39583;54.682;30.662;2023-06-10T15:15:32;100186.88;;;20.78;32.70
53689;BME280;39583;54.682;30.662;2023-06-10T15:17:58;100199.66;;;20.57;32.66
53689;BME280;39583;54.682;30.662;2023-06-10T15:20:24;100195.47;;;20.39;33.06
53689;BME280;39583;54.682;30.662;2023-06-10T15:22:50;100204.44;;;20.29;33.32
53689;BME280;39583;54.682;30.662;2023-06-10T15:25:16;100204.13;;;20.21;33.25
53689;BME280;39583;54.682;30.662;2023-06-10T15:27:42;100207.75;;;20.37;33.22
53689;BME280;39583;54.682;30.662;2023-06-10T15:30:08;100200.38;;;21.20;31.89
53689;BME280;39583;54.682;30.662;2023-06-10T15:32:34;100210.56;;;21.81;31.17
53689;BME280;39583;54.682;30.662;2023-06-10T15:35:00;100206.09;;;22.35;31.11
53689;BME280;39583;54.682;30.662;2023-06-10T15:37:26;100204.16;;;23.45;29.73
53689;BME280;39583;54.682;30.662;2023-06-10T15:39:52;100209.94;;;24.35;29.07
53689;BME280;39583;54.682;30.662;2023-06-10T15:42:18;100204.50;;;24.25;28.51
53689;BME280;39583;54.682;30.662;2023-06-10T15:44:43;100218.47;;;24.05;28.27
53689;BME280;39583;54.682;30.662;2023-06-10T15:47:10;100212.84;;;23.57;28.68
53689;BME280;39583;54.682;30.662;2023-06-10T15:49:36;100204.84;;;23.55;28.29
53689;BME280;39583;54.682;30.662;2023-06-10T15:52:02;100207.56;;;23.66;28.12
53689;BME280;39583;54.682;30.662;2023-06-10T15:54:28;100217.25;;;23.53;28.11
53689;BME280;39583;54.682;30.662;2023-06-10T15:56:54;100217.50;;;23.17;28.09
53689;BME280;39583;54.682;30.662;2023-06-10T15:59:20;100218.31;;;22.63;28.93
53689;BME280;39583;54.682;30.662;2023-06-10T16:01:46;100216.25;;;22.40;29.36
53689;BME280;39583;54.682;30.662;2023-06-10T16:04:13;100218.81;;;22.81;29.43
53689;BME280;39583;54.682;30.662;2023-06-10T16:06:39;100218.38;;;23.13;28.95
53689;BME280;39583;54.682;30.662;2023-06-10T16:09:05;100197.19;;;23.58;28.65
53689;BME280;39583;54.682;30.662;2023-06-10T16:11:32;100223.44;;;24.56;27.96
53689;BME280;39583;54.682;30.662;2023-06-10T16:13:58;100212.25;;;25.46;26.58
53689;BME280;39583;54.682;30.662;2023-06-10T16:16:24;100215.94;;;26.07;25.97
53689;BME280;39583;54.682;30.662;2023-06-10T16:18:50;100226.81;;;26.86;26.00
53689;BME280;39583;54.682;30.662;2023-06-10T16:21:16;100225.09;;;27.26;25.30
53689;BME280;39583;54.682;30.662;2023-06-10T16:23:42;100226.00;;;27.35;25.10
53689;BME280;39583;54.682;30.662;2023-06-10T16:26:08;100226.44;;;27.51;25.20
53689;BME280;39583;54.682;30.662;2023-06-10T16:28:34;100225.50;;;28.00;23.90
53689;BME280;39583;54.682;30.662;2023-06-10T16:30:59;100229.66;;;28.20;23.93
53689;BME280;39583;54.682;30.662;2023-06-10T16:33:25;100231.56;;;28.42;23.66
53689;BME280;39583;54.682;30.662;2023-06-10T16:35:51;100237.69;;;28.70;23.21
53689;BME280;39583;54.682;30.662;2023-06-10T16:38:17;100236.56;;;28.79;23.14
53689;BME280;39583;54.682;30.662;2023-06-10T16:40:43;100236.59;;;28.88;23.27
53689;BME280;39583;54.682;30.662;2023-06-10T16:43:09;100234.75;;;28.66;22.78
53689;BME280;39583;54.682;30.662;2023-06-10T16:45:35;100236.31;;;28.50;22.87
53689;BME280;39583;54.682;30.662;2023-06-10T16:48:01;100229.00;;;28.63;22.73
53689;BME280;39583;54.682;30.662;2023-06-10T16:50:27;100235.84;;;28.57;22.66
53689;BME280;39583;54.682;30.662;2023-06-10T16:52:53;100242.91;;;28.71;22.78
53689;BME280;39583;54.682;30.662;2023-06-10T16:55:19;100235.09;;;28.73;22.94
53689;BME280;39583;54.682;30.662;2023-06-10T16:57:45;100244.16;;;28.26;22.25
53689;BME280;39583;54.682;30.662;2023-06-10T17:00:12;100241.13;;;27.60;23.08
53689;BME280;39583;54.682;30.662;2023-06-10T17:02:38;100237.75;;;27.41;23.25
53689;BME280;39583;54.682;30.662;2023-06-10T17:05:05;100239.38;;;27.42;23.79
53689;BME280;39583;54.682;30.662;2023-06-10T17:07:31;100221.56;;;27.34;23.44
53689;BME280;39583;54.682;30.662;2023-06-10T17:09:57;100247.59;;;27.33;23.04
53689;BME280;39583;54.682;30.662;2023-06-10T17:12:23;100247.16;;;27.03;23.47
53689;BME280;39583;54.682;30.662;2023-06-10T17:14:49;100249.28;;;27.07;23.66
53689;BME280;39583;54.682;30.662;2023-06-10T17:17:15;100253.13;;;26.83;23.71
53689;BME280;39583;54.682;30.662;2023-06-10T17:19:40;100250.66;;;26.68;24.09
53689;BME280;39583;54.682;30.662;2023-06-10T17:22:06;100255.47;;;26.49;24.03
53689;BME280;39583;54.682;30.662;2023-06-10T17:24:32;100259.19;;;26.11;23.94
53689;BME280;39583;54.682;30.662;2023-06-10T17:26:58;100258.50;;;25.87;24.52
53689;BME280;39583;54.682;30.662;2023-06-10T17:29:24;100256.59;;;25.50;24.67
53689;BME280;39583;54.682;30.662;2023-06-10T17:31:50;100270.94;;;24.42;25.47
53689;BME280;39583;54.682;30.662;2023-06-10T17:34:17;100276.38;;;23.06;27.33
53689;BME280;39583;54.682;30.662;2023-06-10T17:36:43;100271.13;;;23.10;27.27
53689;BME280;39583;54.682;30.662;2023-06-10T17:39:11;100267.38;;;23.40;27.00
53689;BME280;39583;54.682;30.662;2023-06-10T17:41:37;100279.09;;;23.61;26.96
53689;BME280;39583;54.682;30.662;2023-06-10T17:44:04;100282.94;;;23.60;26.81
53689;BME280;39583;54.682;30.662;2023-06-10T17:46:30;100290.91;;;23.61;26.93
53689;BME280;39583;54.682;30.662;2023-06-10T17:48:56;100294.75;;;23.55;27.26
53689;BME280;39583;54.682;30.662;2023-06-10T17:51:22;100301.75;;;23.37;27.35
53689;BME280;39583;54.682;30.662;2023-06-10T17:53:48;100311.22;;;23.11;27.80
53689;BME280;39583;54.682;30.662;2023-06-10T17:56:13;100314.38;;;22.74;28.42
53689;BME280;39583;54.682;30.662;2023-06-10T17:58:39;100309.25;;;22.31;28.90
53689;BME280;39583;54.682;30.662;2023-06-10T18:01:07;100319.13;;;21.97;29.42
53689;BME280;39583;54.682;30.662;2023-06-10T18:03:33;100327.28;;;21.41;29.98
53689;BME280;39583;54.682;30.662;2023-06-10T18:06:02;100336.50;;;20.25;31.65
53689;BME280;39583;54.682;30.662;2023-06-10T18:08:29;100334.28;;;19.14;33.44
53689;BME280;39583;54.682;30.662;2023-06-10T18:10:55;100327.66;;;18.27;34.72
53689;BME280;39583;54.682;30.662;2023-06-10T18:13:21;100335.50;;;17.62;35.63
53689;BME280;39583;54.682;30.662;2023-06-10T18:15:47;100340.72;;;17.06;36.71
53689;BME280;39583;54.682;30.662;2023-06-10T18:18:13;100347.13;;;16.65;37.26
53689;BME280;39583;54.682;30.662;2023-06-10T18:20:39;100345.59;;;16.34;37.79
53689;BME280;39583;54.682;30.662;2023-06-10T18:23:05;100349.84;;;16.07;38.48
53689;BME280;39583;54.682;30.662;2023-06-10T18:25:30;100357.34;;;15.81;38.75
53689;BME280;39583;54.682;30.662;2023-06-10T18:27:56;100364.56;;;15.57;39.53
53689;BME280;39583;54.682;30.662;2023-06-10T18:30:22;100363.50;;;15.28;39.84
53689;BME280;39583;54.682;30.662;2023-06-10T18:32:48;100367.66;;;15.13;40.28
53689;BME280;39583;54.682;30.662;2023-06-10T18:35:14;100373.06;;;14.94;40.76
53689;BME280;39583;54.682;30.662;2023-06-10T18:37:40;100375.19;;;14.74;41.20
53689;BME280;39583;54.682;30.662;2023-06-10T18:40:06;100374.34;;;14.55;41.63
53689;BME280;39583;54.682;30.662;2023-06-10T18:42:32;100374.88;;;14.39;42.02
53689;BME280;39583;54.682;30.662;2023-06-10T18:44:58;100382.06;;;14.27;42.24
53689;BME280;39583;54.682;30.662;2023-06-10T18:47:24;100384.06;;;14.13;42.71
53689;BME280;39583;54.682;30.662;2023-06-10T18:49:50;100380.03;;;13.97;43.01
53689;BME280;39583;54.682;30.662;2023-06-10T18:52:16;100388.25;;;13.84;43.32
53689;BME280;39583;54.682;30.662;2023-06-10T18:54:42;100394.94;;;13.75;43.74
53689;BME280;39583;54.682;30.662;2023-06-10T18:57:09;100399.59;;;13.61;44.18
53689;BME280;39583;54.682;30.662;2023-06-10T18:59:35;100409.25;;;13.50;44.51
53689;BME280;39583;54.682;30.662;2023-06-10T19:02:01;100405.53;;;13.38;44.75
53689;BME280;39583;54.682;30.662;2023-06-10T19:04:27;100410.38;;;13.30;45.13
53689;BME280;39583;54.682;30.662;2023-06-10T19:06:53;100405.00;;;13.16;45.19
53689;BME280;39583;54.682;30.662;2023-06-10T19:09:19;100414.78;;;13.11;45.49
53689;BME280;39583;54.682;30.662;2023-06-10T19:11:44;100415.44;;;12.99;45.71
53689;BME280;39583;54.682;30.662;2023-06-10T19:14:10;100427.31;;;12.92;45.96
53689;BME280;39583;54.682;30.662;2023-06-10T19:16:36;100423.38;;;12.81;46.14
53689;BME280;39583;54.682;30.662;2023-06-10T19:19:02;100426.09;;;12.75;46.61
53689;BME280;39583;54.682;30.662;2023-06-10T19:21:28;100433.38;;;12.67;46.94
53689;BME280;39583;54.682;30.662;2023-06-10T19:23:54;100432.34;;;12.62;46.88
53689;BME280;39583;54.682;30.662;2023-06-10T19:26:20;100435.69;;;12.57;47.03
53689;BME280;39583;54.682;30.662;2023-06-10T19:28:46;100437.56;;;12.50;47.44
53689;BME280;39583;54.682;30.662;2023-06-10T19:31:12;100442.75;;;12.45;47.73
53689;BME280;39583;54.682;30.662;2023-06-10T19:33:38;100433.19;;;12.36;47.91
53689;BME280;39583;54.682;30.662;2023-06-10T19:36:05;100435.25;;;12.34;48.08
53689;BME280;39583;54.682;30.662;2023-06-10T19:38:31;100443.16;;;12.29;48.32
53689;BME280;39583;54.682;30.662;2023-06-10T19:40:57;100449.19;;;12.24;48.36
53689;BME280;39583;54.682;30.662;2023-06-10T19:43:23;100442.31;;;12.22;48.73
53689;BME280;39583;54.682;30.662;2023-06-10T19:45:48;100448.34;;;12.17;48.81
53689;BME280;39583;54.682;30.662;2023-06-10T19:48:14;100445.25;;;12.14;48.94
53689;BME280;39583;54.682;30.662;2023-06-10T19:50:40;100445.84;;;12.09;49.03
53689;BME280;39583;54.682;30.662;2023-06-10T19:53:06;100456.44;;;12.04;49.40
53689;BME280;39583;54.682;30.662;2023-06-10T19:55:32;100450.00;;;11.98;49.69
53689;BME280;39583;54.682;30.662;2023-06-10T19:57:58;100448.50;;;11.96;49.72
53689;BME280;39583;54.682;30.662;2023-06-10T20:00:24;100449.34;;;11.90;49.85
53689;BME280;39583;54.682;30.662;2023-06-10T20:02:49;100456.81;;;11.88;50.12
53689;BME280;39583;54.682;30.662;2023-06-10T20:05:15;100453.50;;;11.86;50.23
53689;BME280;39583;54.682;30.662;2023-06-10T20:07:42;100456.34;;;11.77;50.20
53689;BME280;39583;54.682;30.662;2023-06-10T20:10:08;100466.50;;;11.75;50.63
53689;BME280;39583;54.682;30.662;2023-06-10T20:12:34;100453.81;;;11.69;50.62
53689;BME280;39583;54.682;30.662;2023-06-10T20:15:00;100460.44;;;11.67;50.84
53689;BME280;39583;54.682;30.662;2023-06-10T20:17:26;100448.38;;;11.56;51.05